Time;durP1;ratioP1;P1;durP2;ratioP2;P2;SDS_P1;SDS_P2;PMS_P1;PMS_P2;Temp;Humidity;BMP_temperature;BMP_pressure;BME280_temperature;BME280_humidity;BME280_pressure;Samples;Min_cycle;Max_cycle;Signal;HPM_P1;HPM_P2
2023/04/07 00:38:27;;;;;;;41.55;37.20;;;7.70;99.90;;;;;;4990516;28;20140;-91
2023/04/07 00:40:58;;;;;;;39.13;35.28;;;7.70;99.90;;;;;;4973096;28;20129;-91
2023/04/07 00:43:24;;;;;;;24.10;17.10;;;7.70;99.90;;;;;;4955093;28;20465;-94
2023/04/07 00:45:50;;;;;;;40.70;36.50;;;7.70;99.90;;;;;;4996199;28;20112;-94
2023/04/07 00:48:16;;;;;;;44.75;40.28;;;7.70;99.90;;;;;;4987455;28;20066;-92
2023/04/07 00:50:43;;;;;;;44.30;39.83;;;7.70;99.90;;;;;;4997765;28;20038;-93
2023/04/07 00:53:10;;;;;;;43.53;39.28;;;7.70;99.90;;;;;;4994711;28;20041;-93
2023/04/07 00:55:36;;;;;;;41.95;37.78;;;7.70;99.90;;;;;;5011748;28;20106;-94
2023/04/07 00:58:03;;;;;;;38.88;35.17;;;7.70;99.90;;;;;;5016003;28;20058;-92
2023/04/07 01:00:34;;;;;;;28.25;20.77;;;7.70;99.90;;;;;;5011444;28;20046;-92
2023/04/07 01:03:17;;;;;;;37.08;33.65;;;7.70;99.90;;;;;;5008896;28;20049;-94
2023/04/07 01:05:58;;;;;;;42.42;38.17;;;7.70;99.90;;;;;;4968232;28;20046;-93
2023/04/07 01:08:59;;;;;;;40.33;36.42;;;7.70;99.90;;;;;;4983941;28;20366;-92
2023/04/07 01:11:31;;;;;;;28.15;21.75;;;7.70;99.90;;;;;;4983660;28;20053;-92
2023/04/07 01:13:59;;;;;;;37.72;34.20;;;7.60;99.90;;;;;;4982741;28;20050;-93
2023/04/07 01:16:29;;;;;;;38.25;34.60;;;7.60;99.90;;;;;;4990322;28;20104;-93
2023/04/07 01:19:00;;;;;;;39.83;36.03;;;7.70;99.90;;;;;;4968983;28;20042;-92
2023/04/07 01:21:27;;;;;;;40.17;36.40;;;7.70;99.90;;;;;;4986095;28;20080;-92
2023/04/07 01:24:14;;;;;;;35.92;32.70;;;7.70;99.90;;;;;;4970820;28;20077;-92
2023/04/07 01:26:41;;;;;;;36.60;33.13;;;7.70;99.90;;;;;;4965356;28;21160;-91
2023/04/07 01:29:36;;;;;;;25.33;17.17;;;7.70;99.90;;;;;;4994431;28;20089;-91
2023/04/07 01:32:06;;;;;;;37.45;33.92;;;7.70;99.90;;;;;;4989811;28;20121;-91
2023/04/07 01:34:33;;;;;;;42.93;38.63;;;7.60;99.90;;;;;;4988550;28;20050;-91
2023/04/07 01:37:01;;;;;;;35.28;31.95;;;7.70;99.90;;;;;;4988811;28;20050;-92
2023/04/07 01:39:27;;;;;;;38.83;35.13;;;7.70;99.90;;;;;;4970563;28;20137;-92
2023/04/07 01:41:54;;;;;;;37.20;33.58;;;7.70;99.90;;;;;;4988156;28;20454;-92
2023/04/07 01:44:20;;;;;;;35.63;32.22;;;7.70;99.90;;;;;;4987242;28;20376;-91
2023/04/07 01:46:47;;;;;;;36.70;33.15;;;7.70;99.90;;;;;;4975981;28;20035;-92
2023/04/07 01:49:14;;;;;;;36.97;33.38;;;7.70;99.90;;;;;;4988942;28;20472;-92
2023/04/07 01:51:41;;;;;;;35.13;31.92;;;7.70;99.90;;;;;;4987408;28;20042;-92
2023/04/07 01:54:07;;;;;;;34.35;31.05;;;7.70;99.90;;;;;;4967733;28;20174;-92
2023/04/07 01:56:33;;;;;;;43.38;38.90;;;7.70;99.90;;;;;;4956192;28;20092;-92
2023/04/07 01:58:58;;;;;;;38.45;34.75;;;7.70;99.90;;;;;;4985449;28;20559;-92
2023/04/07 02:01:24;;;;;;;35.35;32.10;;;7.70;99.90;;;;;;4992077;28;20034;-93
2023/04/07 02:04:08;;;;;;;41.15;37.05;;;7.70;99.90;;;;;;4984035;28;20038;-93
2023/04/07 02:06:42;;;;;;;37.03;33.53;;;7.70;99.90;;;;;;4988239;28;20106;-92
2023/04/07 02:09:11;;;;;;;39.55;35.50;;;7.70;99.90;;;;;;4988153;28;20501;-93
2023/04/07 02:11:41;;;;;;;39.03;34.88;;;7.70;99.90;;;;;;4984602;28;20057;-92
2023/04/07 02:14:07;;;;;;;37.42;33.78;;;7.70;99.90;;;;;;4991641;28;20073;-92
2023/04/07 02:16:34;;;;;;;39.30;35.30;;;7.70;99.90;;;;;;4988573;28;20041;-92
2023/04/07 02:19:01;;;;;;;43.65;38.90;;;7.70;99.90;;;;;;4972767;28;20042;-92
2023/04/07 02:21:29;;;;;;;37.05;33.40;;;7.70;99.90;;;;;;4987303;28;20054;-92
2023/04/07 02:23:55;;;;;;;35.95;32.53;;;7.70;99.90;;;;;;4990979;28;20394;-92
2023/04/07 02:26:20;;;;;;;38.90;35.03;;;7.70;99.90;;;;;;4987129;28;20049;-92
2023/04/07 02:28:46;;;;;;;36.15;32.65;;;7.70;99.90;;;;;;4970485;28;20050;-92
2023/04/07 02:31:12;;;;;;;38.60;34.78;;;7.70;99.90;;;;;;4974654;28;20368;-92
2023/04/07 02:33:38;;;;;;;39.00;35.10;;;7.80;99.90;;;;;;4988104;28;20071;-91
2023/04/07 02:36:04;;;;;;;26.27;18.30;;;7.70;99.90;;;;;;4987149;28;20034;-92
2023/04/07 02:38:31;;;;;;;40.80;36.65;;;7.70;99.90;;;;;;4985138;28;20042;-92
2023/04/07 02:40:57;;;;;;;36.67;33.17;;;7.70;99.90;;;;;;4986657;28;20594;-92
2023/04/07 02:43:24;;;;;;;35.28;31.90;;;7.70;99.90;;;;;;4984651;28;20045;-90
2023/04/07 02:45:50;;;;;;;35.85;32.35;;;7.70;99.90;;;;;;4988803;28;20061;-90
2023/04/07 02:48:15;;;;;;;38.35;34.45;;;7.70;99.90;;;;;;4990875;28;20034;-89
2023/04/07 02:50:41;;;;;;;40.42;35.70;;;7.80;99.90;;;;;;4983619;28;20034;-90
2023/04/07 02:53:07;;;;;;;41.90;37.60;;;7.70;99.90;;;;;;4989406;28;20038;-90
2023/04/07 02:55:32;;;;;;;38.72;35.00;;;7.70;99.90;;;;;;4986713;28;20073;-90
2023/04/07 02:57:58;;;;;;;36.17;32.80;;;7.70;99.90;;;;;;4989619;28;20041;-90
2023/04/07 03:00:24;;;;;;;38.33;34.50;;;7.70;99.90;;;;;;4983309;28;20036;-90
2023/04/07 03:02:50;;;;;;;37.45;33.67;;;7.70;99.90;;;;;;4986510;28;20039;-92
2023/04/07 03:05:16;;;;;;;38.78;34.72;;;7.80;99.90;;;;;;4986689;28;20042;-92
2023/04/07 03:07:41;;;;;;;38.97;35.17;;;7.70;99.90;;;;;;4986949;28;20061;-92
2023/04/07 03:10:07;;;;;;;39.85;35.95;;;7.70;99.90;;;;;;4986748;28;20104;-92
2023/04/07 03:12:33;;;;;;;36.65;33.30;;;7.70;99.90;;;;;;4972318;28;20046;-93
2023/04/07 03:14:58;;;;;;;38.08;34.47;;;7.70;99.90;;;;;;4987684;28;20038;-93
2023/04/07 03:17:24;;;;;;;39.47;35.58;;;7.70;99.90;;;;;;4986919;28;20050;-91
2023/04/07 03:19:50;;;;;;;39.15;35.35;;;7.70;99.90;;;;;;4975068;28;20042;-93
2023/04/07 03:22:16;;;;;;;39.00;35.17;;;7.70;99.90;;;;;;4987729;28;20121;-92
2023/04/07 03:24:41;;;;;;;35.03;31.85;;;7.70;99.90;;;;;;4968924;28;20104;-93
2023/04/07 03:27:07;;;;;;;37.30;33.72;;;7.80;99.90;;;;;;4973734;28;20050;-92
2023/04/07 03:29:33;;;;;;;38.95;35.05;;;7.70;99.90;;;;;;4982456;28;20050;-93
2023/04/07 03:31:58;;;;;;;39.70;35.67;;;7.80;99.90;;;;;;4986794;28;20391;-93
2023/04/07 03:34:24;;;;;;;37.30;33.60;;;7.70;99.90;;;;;;4989231;28;20042;-92
2023/04/07 03:36:50;;;;;;;39.50;35.42;;;7.70;99.90;;;;;;4986296;28;20120;-93
2023/04/07 03:39:15;;;;;;;42.33;38.08;;;7.80;99.90;;;;;;4987002;28;20129;-90
2023/04/07 03:41:41;;;;;;;26.20;17.38;;;7.70;99.90;;;;;;4986021;28;20053;-92
2023/04/07 03:44:06;;;;;;;38.10;34.40;;;7.70;99.90;;;;;;4990140;28;20074;-92
2023/04/07 03:46:32;;;;;;;35.00;31.67;;;7.70;99.90;;;;;;4986170;28;20105;-92
2023/04/07 03:48:58;;;;;;;35.40;32.00;;;7.70;99.90;;;;;;4988190;28;20042;-92
2023/04/07 03:51:23;;;;;;;38.00;34.28;;;7.70;99.90;;;;;;4989031;28;20046;-93
2023/04/07 03:53:49;;;;;;;40.20;35.85;;;7.70;99.90;;;;;;4985419;28;20044;-93
2023/04/07 03:56:15;;;;;;;41.55;37.03;;;7.70;99.90;;;;;;4965500;28;20246;-92
2023/04/07 03:58:41;;;;;;;36.67;33.15;;;7.70;99.90;;;;;;4976806;28;20035;-92
2023/04/07 04:01:07;;;;;;;39.88;35.92;;;7.70;99.90;;;;;;4985814;28;20101;-92
2023/04/07 04:03:33;;;;;;;36.08;32.50;;;7.70;99.90;;;;;;4986705;28;20152;-92
2023/04/07 04:05:59;;;;;;;26.50;20.73;;;7.70;99.90;;;;;;4987087;28;20049;-93
2023/04/07 04:08:26;;;;;;;38.45;34.65;;;7.70;99.90;;;;;;4985581;28;20042;-92
2023/04/07 04:10:51;;;;;;;36.03;32.50;;;7.70;99.90;;;;;;4969148;28;20518;-92
2023/04/07 04:13:17;;;;;;;40.00;35.63;;;7.70;99.90;;;;;;4989795;28;20051;-92
2023/04/07 04:15:43;;;;;;;32.67;29.60;;;7.70;99.90;;;;;;4987678;28;20070;-93
2023/04/07 04:18:08;;;;;;;36.33;32.63;;;7.70;99.90;;;;;;4987874;28;20039;-91
2023/04/07 04:20:34;;;;;;;34.55;31.15;;;7.70;99.90;;;;;;4963752;28;20562;-91
2023/04/07 04:22:59;;;;;;;39.00;34.88;;;7.70;99.90;;;;;;4985517;28;20517;-92
2023/04/07 04:25:25;;;;;;;35.92;32.42;;;7.70;99.90;;;;;;4987903;28;20366;-91
2023/04/07 04:27:50;;;;;;;29.17;19.02;;;7.70;99.90;;;;;;4986759;28;20038;-91
2023/04/07 04:30:16;;;;;;;34.67;31.38;;;7.70;99.90;;;;;;4985822;28;20391;-91
2023/04/07 04:32:42;;;;;;;42.53;38.17;;;7.70;99.90;;;;;;4987466;28;20064;-93
2023/04/07 04:35:08;;;;;;;40.05;35.78;;;7.70;99.90;;;;;;4988627;28;20038;-92
2023/04/07 04:37:34;;;;;;;40.95;36.60;;;7.70;99.90;;;;;;4982703;28;20059;-91
2023/04/07 04:40:00;;;;;;;40.17;36.03;;;7.70;99.90;;;;;;4984847;28;20042;-91
2023/04/07 04:42:26;;;;;;;34.67;31.33;;;7.70;99.90;;;;;;4986315;28;20034;-90
2023/04/07 04:44:52;;;;;;;36.25;32.47;;;7.70;99.90;;;;;;4986576;28;20045;-90
2023/04/07 04:47:18;;;;;;;21.70;15.15;;;7.60;99.90;;;;;;4985124;28;20042;-90
2023/04/07 04:49:44;;;;;;;38.28;34.17;;;7.60;99.90;;;;;;4988547;28;20522;-90
2023/04/07 04:52:09;;;;;;;36.92;33.22;;;7.60;99.90;;;;;;4988163;28;20035;-85
2023/04/07 04:54:35;;;;;;;35.47;31.90;;;7.60;99.90;;;;;;4990747;28;20299;-90
2023/04/07 04:57:01;;;;;;;40.30;35.90;;;7.70;99.90;;;;;;4994311;28;20046;-89
2023/04/07 04:59:26;;;;;;;39.47;35.30;;;7.60;99.90;;;;;;4986838;28;20038;-91
2023/04/07 05:01:52;;;;;;;37.03;33.38;;;7.70;99.90;;;;;;4987680;28;20053;-93
2023/04/07 05:04:18;;;;;;;35.50;32.00;;;7.70;99.90;;;;;;4980150;28;20112;-91
2023/04/07 05:06:43;;;;;;;39.80;35.38;;;7.60;99.90;;;;;;4990825;28;20380;-91
2023/04/07 05:09:09;;;;;;;37.35;33.65;;;7.60;99.90;;;;;;4990417;28;20042;-92
2023/04/07 05:11:35;;;;;;;38.85;34.88;;;7.60;99.90;;;;;;4989589;28;20102;-92
2023/04/07 05:14:00;;;;;;;36.95;33.13;;;7.70;99.90;;;;;;4974223;28;20054;-89
2023/04/07 05:16:26;;;;;;;39.05;35.15;;;7.60;99.90;;;;;;4969243;28;20038;-83
2023/04/07 05:18:52;;;;;;;36.88;33.10;;;7.60;99.90;;;;;;4986332;28;20042;-86
2023/04/07 05:21:19;;;;;;;38.70;34.65;;;7.60;99.90;;;;;;4983905;28;20484;-85
2023/04/07 05:23:45;;;;;;;39.80;35.67;;;7.60;99.90;;;;;;4989449;28;20046;-82
2023/04/07 05:26:10;;;;;;;39.97;36.03;;;7.60;99.90;;;;;;4989382;28;20390;-85
2023/04/07 05:28:36;;;;;;;40.00;35.97;;;7.60;99.90;;;;;;4988068;28;20058;-82
2023/04/07 05:31:02;;;;;;;36.95;33.45;;;7.60;99.90;;;;;;4956216;28;20395;-85
2023/04/07 05:33:27;;;;;;;39.13;35.33;;;7.60;99.90;;;;;;4988385;28;20469;-83
2023/04/07 05:35:53;;;;;;;43.05;38.60;;;7.60;99.90;;;;;;4970070;28;20038;-85
2023/04/07 05:38:18;;;;;;;39.35;35.30;;;7.60;99.90;;;;;;5003646;28;20102;-85
2023/04/07 05:40:46;;;;;;;45.70;40.50;;;7.70;99.90;;;;;;5006544;28;20121;-85
2023/04/07 05:43:11;;;;;;;43.00;38.55;;;7.70;99.90;;;;;;5007231;28;20045;-81
2023/04/07 05:45:37;;;;;;;37.13;33.58;;;7.60;99.90;;;;;;5007977;28;20038;-85
2023/04/07 05:48:02;;;;;;;40.88;36.75;;;7.60;99.90;;;;;;5007681;28;20104;-83
2023/04/07 05:50:28;;;;;;;43.45;38.88;;;7.70;99.90;;;;;;5006801;28;20119;-85
2023/04/07 05:52:54;;;;;;;43.83;39.33;;;7.60;99.90;;;;;;5006955;28;20052;-82
2023/04/07 05:55:19;;;;;;;39.92;35.83;;;7.70;99.90;;;;;;5007119;28;20049;-83
2023/04/07 05:57:45;;;;;;;39.95;35.85;;;7.60;99.90;;;;;;4989816;28;20042;-82
2023/04/07 06:00:11;;;;;;;40.00;36.13;;;7.60;99.90;;;;;;5007984;28;20034;-83
2023/04/07 06:02:38;;;;;;;37.17;33.50;;;7.70;99.90;;;;;;5005833;28;20061;-82
2023/04/07 06:05:05;;;;;;;42.25;37.78;;;7.70;99.90;;;;;;5006220;28;20053;-83
2023/04/07 06:07:30;;;;;;;38.45;34.50;;;7.70;99.90;;;;;;5004730;28;20532;-81
2023/04/07 06:09:56;;;;;;;39.25;35.15;;;7.70;99.90;;;;;;5006936;28;20046;-84
2023/04/07 06:12:21;;;;;;;43.30;38.75;;;7.70;99.90;;;;;;5005367;28;20041;-82
2023/04/07 06:14:52;;;;;;;38.00;34.20;;;7.70;99.90;;;;;;5005715;28;20462;-83
2023/04/07 06:17:18;;;;;;;38.70;34.85;;;7.80;99.90;;;;;;5004597;28;20501;-81
2023/04/07 06:19:43;;;;;;;28.23;18.27;;;7.80;99.90;;;;;;5004522;28;20033;-82
2023/04/07 06:22:09;;;;;;;38.20;34.40;;;7.70;99.90;;;;;;5004758;28;20038;-84
2023/04/07 06:24:35;;;;;;;40.10;35.97;;;7.80;99.90;;;;;;5009002;28;20110;-85
2023/04/07 06:27:01;;;;;;;39.60;35.53;;;7.80;99.90;;;;;;5006498;28;20847;-84
2023/04/07 06:29:27;;;;;;;35.75;32.17;;;7.90;99.90;;;;;;5005769;28;20053;-84
2023/04/07 06:31:53;;;;;;;42.05;37.65;;;7.90;99.90;;;;;;5005556;28;20034;-86
2023/04/07 06:34:18;;;;;;;24.33;16.88;;;8.00;99.90;;;;;;5004870;28;20450;-85
2023/04/07 06:36:44;;;;;;;37.53;33.70;;;7.90;99.90;;;;;;5001625;28;20422;-85
2023/04/07 06:39:10;;;;;;;36.40;32.88;;;7.90;99.90;;;;;;4989846;28;20046;-84
2023/04/07 06:41:37;;;;;;;37.22;33.63;;;8.00;99.90;;;;;;4988436;28;20057;-85
2023/04/07 06:44:03;;;;;;;37.35;33.65;;;8.00;99.90;;;;;;4970573;28;20479;-84
2023/04/07 06:46:29;;;;;;;36.65;32.95;;;8.10;99.90;;;;;;4966540;28;20048;-84
2023/04/07 06:48:54;;;;;;;36.58;32.85;;;8.10;99.90;;;;;;4953025;28;20109;-86
2023/04/07 06:51:20;;;;;;;33.83;30.50;;;8.20;99.90;;;;;;5001213;28;20125;-83
2023/04/07 06:53:47;;;;;;;38.13;34.30;;;8.20;99.90;;;;;;4974523;28;20141;-88
2023/04/07 06:56:14;;;;;;;37.30;33.47;;;8.20;99.90;;;;;;4969502;28;20050;-89
2023/04/07 06:58:39;;;;;;;34.13;30.70;;;8.30;99.90;;;;;;4985459;28;20050;-90
2023/04/07 07:01:05;;;;;;;35.20;31.70;;;8.20;99.90;;;;;;4990040;28;20053;-90
2023/04/07 07:03:31;;;;;;;36.38;32.75;;;8.20;99.90;;;;;;4987025;28;20038;-88
2023/04/07 07:05:58;;;;;;;35.63;32.05;;;8.30;99.90;;;;;;4985742;28;20453;-91
2023/04/07 07:08:24;;;;;;;35.65;32.15;;;8.30;99.90;;;;;;4987316;28;20038;-89
2023/04/07 07:10:50;;;;;;;34.25;30.85;;;8.30;99.90;;;;;;4988343;28;20150;-92
2023/04/07 07:13:22;;;;;;;35.75;32.15;;;8.30;99.90;;;;;;4973225;28;20073;-90
2023/04/07 07:15:48;;;;;;;35.00;31.55;;;8.40;99.90;;;;;;4984954;28;20085;-89
2023/04/07 07:18:14;;;;;;;33.72;30.52;;;8.40;99.90;;;;;;4995878;28;20078;-94
2023/04/07 07:20:40;;;;;;;35.58;32.08;;;8.50;99.90;;;;;;4965815;28;20042;-92
2023/04/07 07:23:06;;;;;;;36.90;33.22;;;8.50;99.90;;;;;;4973833;28;20068;-95
2023/04/07 07:25:31;;;;;;;33.20;30.00;;;8.60;99.90;;;;;;4971097;28;20049;-94
2023/04/07 07:27:57;;;;;;;34.92;31.63;;;8.60;99.90;;;;;;4985339;28;20045;-94
2023/04/07 07:30:23;;;;;;;33.35;30.15;;;8.70;99.90;;;;;;4980591;28;20041;-93
2023/04/07 07:32:49;;;;;;;30.08;27.25;;;8.70;99.90;;;;;;4956743;28;20061;-93
2023/04/07 07:35:15;;;;;;;33.90;30.60;;;8.70;99.90;;;;;;4988797;28;20073;-91
2023/04/07 07:37:43;;;;;;;30.85;27.77;;;8.70;99.90;;;;;;5020724;28;20058;-89
2023/04/07 07:40:09;;;;;;;29.25;26.45;;;8.80;99.90;;;;;;5004180;28;20061;-85
2023/04/07 07:42:35;;;;;;;30.38;27.48;;;8.80;99.90;;;;;;5005899;28;20786;-92
2023/04/07 07:45:01;;;;;;;30.95;27.95;;;8.80;99.90;;;;;;5008980;28;20042;-89
2023/04/07 07:47:26;;;;;;;29.80;27.00;;;8.80;99.90;;;;;;5005250;28;20084;-91
2023/04/07 07:49:52;;;;;;;31.45;28.48;;;8.90;99.90;;;;;;5003792;28;20038;-87
2023/04/07 07:52:19;;;;;;;28.83;26.13;;;8.90;99.90;;;;;;5005810;28;20037;-87
2023/04/07 07:54:45;;;;;;;26.50;23.95;;;9.00;99.90;;;;;;5005450;28;21757;-88
2023/04/07 07:57:11;;;;;;;28.67;25.98;;;9.10;99.90;;;;;;5007994;28;20056;-89
2023/04/07 07:59:37;;;;;;;28.52;25.77;;;9.20;99.90;;;;;;5004808;28;20046;-91
2023/04/07 08:02:03;;;;;;;28.05;25.42;;;9.20;99.90;;;;;;5006838;28;20445;-87
2023/04/07 08:04:28;;;;;;;27.42;24.85;;;9.30;99.90;;;;;;5008418;28;20049;-92
2023/04/07 08:06:54;;;;;;;25.42;23.13;;;9.30;99.90;;;;;;5007090;28;20125;-91
2023/04/07 08:09:20;;;;;;;25.65;23.25;;;9.30;99.90;;;;;;5004904;28;20049;-88
2023/04/07 08:11:47;;;;;;;25.77;23.27;;;9.40;99.90;;;;;;5005951;28;20179;-87
2023/04/07 08:14:13;;;;;;;23.83;21.63;;;9.40;99.90;;;;;;5004692;28;20356;-87
2023/04/07 08:16:39;;;;;;;24.75;22.38;;;9.50;99.90;;;;;;5004568;28;20045;-88
2023/04/07 08:19:05;;;;;;;25.30;22.92;;;9.50;99.90;;;;;;5003857;28;20049;-91
2023/04/07 08:21:31;;;;;;;25.33;22.92;;;9.50;99.90;;;;;;5010609;28;20498;-92
2023/04/07 08:23:57;;;;;;;23.20;20.88;;;9.50;99.90;;;;;;5007030;28;20379;-88
2023/04/07 08:26:23;;;;;;;23.45;21.23;;;9.60;99.90;;;;;;5012923;28;20046;-93
2023/04/07 08:28:52;;;;;;;23.50;21.30;;;9.60;99.90;;;;;;5000663;28;20418;-88
2023/04/07 08:31:18;;;;;;;24.30;22.00;;;9.60;99.90;;;;;;5005006;28;20049;-87
2023/04/07 08:33:45;;;;;;;23.83;21.63;;;9.60;99.90;;;;;;5003380;28;20034;-87
2023/04/07 08:36:11;;;;;;;24.30;22.02;;;9.70;99.90;;;;;;5004867;28;20054;-89
2023/04/07 08:38:37;;;;;;;25.52;23.13;;;9.70;99.90;;;;;;4991904;28;20475;-91
2023/04/07 08:41:09;;;;;;;25.27;23.02;;;9.70;99.90;;;;;;4986105;28;20092;-87
2023/04/07 08:43:36;;;;;;;26.25;23.92;;;9.70;99.90;;;;;;4986028;28;20070;-90
2023/04/07 08:46:03;;;;;;;25.90;23.60;;;9.80;99.90;;;;;;4990754;28;20523;-86
2023/04/07 08:48:33;;;;;;;26.02;23.63;;;9.80;99.90;;;;;;4990020;28;20386;-87
2023/04/07 08:51:04;;;;;;;26.58;24.17;;;9.90;99.90;;;;;;4994406;28;20391;-92
2023/04/07 08:53:34;;;;;;;;;;;9.90;99.90;;;;;;4985988;28;20097;-88
2023/04/07 08:56:00;;;;;;;27.15;24.77;;;9.90;99.90;;;;;;4956551;28;20110;-89
2023/04/07 08:58:27;;;;;;;27.35;25.02;;;9.90;99.90;;;;;;4969305;28;20061;-88
2023/04/07 09:00:52;;;;;;;27.65;25.23;;;10.00;99.90;;;;;;4973177;28;20050;-89
2023/04/07 09:03:19;;;;;;;27.33;24.92;;;10.00;99.90;;;;;;4967632;28;20499;-86
2023/04/07 09:05:45;;;;;;;27.40;25.00;;;10.00;99.90;;;;;;4989757;28;20043;-87
2023/04/07 09:08:11;;;;;;;29.95;27.15;;;10.00;99.90;;;;;;4971812;28;20053;-87
2023/04/07 09:10:37;;;;;;;29.73;27.05;;;10.10;99.90;;;;;;4970959;28;20517;-86
2023/04/07 09:13:02;;;;;;;29.15;26.55;;;10.10;99.90;;;;;;4976184;28;20056;-90
2023/04/07 09:15:32;;;;;;;27.38;24.98;;;10.20;99.90;;;;;;4989750;28;20049;-91
2023/04/07 09:17:58;;;;;;;28.27;25.70;;;10.20;99.90;;;;;;4971471;28;20053;-85
2023/04/07 09:20:24;;;;;;;28.60;26.00;;;10.20;99.90;;;;;;4970641;28;20046;-87
2023/04/07 09:22:50;;;;;;;26.85;24.45;;;10.10;99.90;;;;;;4974976;28;20056;-87
2023/04/07 09:25:17;;;;;;;26.10;23.70;;;10.10;99.90;;;;;;4990272;28;20038;-87
2023/04/07 09:27:57;;;;;;;26.77;24.38;;;10.10;99.90;;;;;;4971769;28;20109;-87
2023/04/07 09:30:23;;;;;;;27.27;24.73;;;10.10;99.90;;;;;;4969949;28;20050;-90
2023/04/07 09:32:49;;;;;;;28.13;25.42;;;10.10;99.90;;;;;;4988905;28;20489;-89
2023/04/07 09:35:14;;;;;;;26.65;24.25;;;10.20;99.90;;;;;;4960767;28;20042;-85
2023/04/07 09:37:41;;;;;;;25.98;23.58;;;10.30;99.90;;;;;;4999082;28;20443;-87
2023/04/07 09:40:07;;;;;;;25.05;22.75;;;10.30;99.90;;;;;;4981530;28;20043;-82
2023/04/07 09:42:35;;;;;;;26.40;24.00;;;10.40;99.90;;;;;;5010776;28;20037;-83
2023/04/07 09:45:01;;;;;;;25.02;22.63;;;10.40;99.90;;;;;;4984175;28;20442;-85
2023/04/07 09:47:31;;;;;;;23.13;20.92;;;10.40;99.90;;;;;;5018928;28;20453;-85
2023/04/07 09:50:05;;;;;;;23.83;21.63;;;10.30;99.90;;;;;;5018816;28;20054;-85
2023/04/07 09:53:01;;;;;;;22.67;20.38;;;10.30;99.90;;;;;;4986764;28;20108;-83
2023/04/07 09:55:27;;;;;;;21.05;19.05;;;10.30;99.90;;;;;;4974003;28;20085;-86
2023/04/07 09:57:57;;;;;;;20.17;18.17;;;10.30;99.90;;;;;;4990230;28;20045;-84
2023/04/07 10:00:23;;;;;;;20.00;18.10;;;10.30;99.90;;;;;;4989112;28;20116;-83
2023/04/07 10:02:50;;;;;;;19.48;17.52;;;10.30;99.90;;;;;;4986786;28;20042;-89
2023/04/07 10:05:16;;;;;;;17.70;16.00;;;10.40;99.90;;;;;;5004801;28;20109;-81
2023/04/07 10:07:42;;;;;;;16.90;15.20;;;10.50;99.90;;;;;;4990114;28;20498;-86
2023/04/07 10:10:09;;;;;;;15.25;13.75;;;10.50;99.90;;;;;;5010282;28;20111;-90
2023/04/07 10:12:37;;;;;;;15.80;14.18;;;10.50;99.90;;;;;;5013247;28;20046;-93
2023/04/07 10:15:03;;;;;;;13.43;12.02;;;10.60;99.90;;;;;;4991596;28;20061;-94
2023/04/07 10:17:31;;;;;;;12.80;11.50;;;10.60;99.90;;;;;;5023190;28;20509;-94
2023/04/07 10:20:00;;;;;;;11.77;10.48;;;10.50;99.90;;;;;;5014453;28;20414;-95
2023/04/07 10:22:27;;;;;;;12.18;10.70;;;10.50;99.90;;;;;;4978452;28;20054;-95
2023/04/07 10:25:08;;;;;;;11.95;10.75;;;10.50;99.90;;;;;;5009991;28;20076;-95
2023/04/07 10:27:56;;;;;;;11.68;10.45;;;10.50;99.90;;;;;;5005839;28;20051;-94
2023/04/07 10:30:31;;;;;;;11.57;9.90;;;10.60;99.90;;;;;;5023842;28;20064;-92
2023/04/07 10:32:57;;;;;;;11.63;10.38;;;10.70;99.90;;;;;;5018839;28;20037;-91
2023/04/07 10:35:23;;;;;;;10.65;9.55;;;10.70;99.90;;;;;;5012948;28;20092;-93
2023/04/07 10:38:07;;;;;;;11.23;9.15;;;10.60;99.90;;;;;;5014758;28;20061;-93
2023/04/07 10:40:34;;;;;;;12.52;10.25;;;10.60;99.90;;;;;;5025114;28;20097;-90
2023/04/07 10:43:00;;;;;;;10.63;9.18;;;10.60;99.90;;;;;;5012154;28;20129;-90
2023/04/07 10:45:52;;;;;;;11.55;9.60;;;10.70;99.90;;;;;;4982772;28;20109;-90
2023/04/07 10:48:19;;;;;;;10.60;9.30;;;10.90;99.90;;;;;;5009076;28;20046;-86
2023/04/07 10:51:06;;;;;;;10.75;9.10;;;11.10;99.90;;;;;;5005382;28;20083;-87
2023/04/07 10:53:32;;;;;;;9.88;8.45;;;11.30;99.90;;;;;;4974655;28;20053;-89
2023/04/07 10:55:58;;;;;;;9.25;7.68;;;11.50;99.90;;;;;;4988821;28;20050;-83
2023/04/07 10:58:28;;;;;;;8.88;7.13;;;11.50;99.90;;;;;;5007701;28;20087;-83
2023/04/07 11:01:00;;;;;;;9.77;8.10;;;11.50;99.90;;;;;;4989458;28;20147;-86
2023/04/07 11:03:28;;;;;;;9.30;7.53;;;11.40;99.90;;;;;;5003321;28;20045;-85
2023/04/07 11:06:07;;;;;;;10.30;8.30;;;11.30;99.90;;;;;;5003482;28;20469;-88
2023/04/07 11:08:33;;;;;;;10.60;8.98;;;11.10;99.90;;;;;;4988330;28;20077;-86
2023/04/07 11:10:58;;;;;;;10.88;9.60;;;10.90;99.90;;;;;;5006821;28;20070;-86
2023/04/07 11:13:24;;;;;;;11.48;9.40;;;10.80;99.90;;;;;;4989802;28;20049;-86
2023/04/07 11:15:53;;;;;;;11.20;9.77;;;10.70;99.90;;;;;;4989887;28;20064;-85
2023/04/07 11:18:21;;;;;;;11.68;10.18;;;10.70;99.90;;;;;;5007190;28;20037;-86
2023/04/07 11:20:51;;;;;;;11.80;10.43;;;10.60;99.90;;;;;;4988426;28;20056;-85
2023/04/07 11:23:18;;;;;;;11.07;9.82;;;10.70;99.90;;;;;;4987826;28;20038;-85
2023/04/07 11:25:46;;;;;;;12.65;10.48;;;10.60;99.90;;;;;;5006868;28;20037;-86
2023/04/07 11:28:13;;;;;;;11.18;9.98;;;10.60;99.90;;;;;;5005768;28;20045;-86
2023/04/07 11:30:51;;;;;;;12.10;9.95;;;10.60;99.90;;;;;;5016832;28;20053;-85
2023/04/07 11:33:21;;;;;;;10.65;9.55;;;10.50;99.90;;;;;;4988728;28;20042;-86
2023/04/07 11:36:06;;;;;;;10.65;9.10;;;10.50;99.90;;;;;;5005783;28;20037;-86
2023/04/07 11:38:36;;;;;;;11.68;9.98;;;10.50;99.90;;;;;;4963977;28;20062;-86
2023/04/07 11:41:10;;;;;;;11.38;9.95;;;10.40;99.90;;;;;;4986009;28;20076;-85
2023/04/07 11:43:36;;;;;;;10.27;8.90;;;10.40;99.90;;;;;;4978153;28;20359;-86
2023/04/07 11:46:06;;;;;;;11.95;9.43;;;10.40;99.90;;;;;;4973385;28;20054;-86
2023/04/07 11:48:33;;;;;;;10.60;9.30;;;10.40;99.90;;;;;;4980501;28;20057;-86
2023/04/07 11:51:00;;;;;;;12.27;10.43;;;10.40;99.90;;;;;;4960364;28;20470;-86
2023/04/07 11:53:27;;;;;;;11.55;9.95;;;10.40;99.90;;;;;;4957231;28;20051;-86
2023/04/07 11:56:02;;;;;;;11.27;9.77;;;10.40;99.90;;;;;;4956041;28;20049;-86
2023/04/07 11:58:28;;;;;;;10.98;9.43;;;10.40;99.90;;;;;;4963445;28;20042;-86
2023/04/07 12:00:56;;;;;;;12.18;10.63;;;10.50;99.90;;;;;;4961794;28;20050;-86
2023/04/07 12:03:22;;;;;;;11.55;10.35;;;10.50;99.90;;;;;;4955301;28;20042;-86
2023/04/07 12:05:47;;;;;;;13.10;10.70;;;10.50;99.90;;;;;;4983887;28;20165;-86
2023/04/07 12:08:15;;;;;;;11.95;10.55;;;10.50;99.90;;;;;;4980394;28;20506;-86
2023/04/07 12:10:41;;;;;;;11.63;10.35;;;10.50;99.90;;;;;;4975409;28;20069;-88
2023/04/07 12:13:08;;;;;;;12.57;11.27;;;10.50;99.90;;;;;;4974227;28;20498;-85
2023/04/07 12:15:36;;;;;;;13.25;11.20;;;10.50;99.90;;;;;;4980428;28;20046;-87
2023/04/07 12:18:02;;;;;;;12.02;10.52;;;10.40;99.90;;;;;;4966989;28;20042;-86
2023/04/07 12:20:28;;;;;;;12.63;11.25;;;10.40;99.90;;;;;;4955513;28;20053;-86
2023/04/07 12:22:53;;;;;;;12.80;11.43;;;10.50;99.90;;;;;;4963874;28;20042;-87
2023/04/07 12:25:19;;;;;;;13.32;11.93;;;10.50;99.90;;;;;;4965644;28;20084;-88
2023/04/07 12:27:45;;;;;;;13.68;12.00;;;10.60;99.90;;;;;;4969823;28;20089;-87
2023/04/07 12:30:12;;;;;;;13.35;11.73;;;10.70;99.90;;;;;;4982528;28;20081;-87
2023/04/07 12:32:38;;;;;;;13.10;11.75;;;10.80;99.90;;;;;;4979919;28;20074;-86
2023/04/07 12:35:05;;;;;;;13.85;12.45;;;10.90;99.90;;;;;;4956589;28;20047;-86
2023/04/07 12:37:31;;;;;;;13.80;12.40;;;11.00;99.90;;;;;;4982748;28;20096;-87
2023/04/07 12:39:57;;;;;;;13.70;12.27;;;11.10;99.90;;;;;;4968901;28;20092;-86
2023/04/07 12:42:23;;;;;;;13.13;11.75;;;11.20;99.90;;;;;;4964358;28;20046;-87
2023/04/07 12:44:48;;;;;;;12.77;11.40;;;11.30;99.90;;;;;;4991204;28;20053;-91
2023/04/07 12:47:14;;;;;;;12.70;11.30;;;11.50;99.90;;;;;;4987178;28;20038;-85
2023/04/07 12:49:40;;;;;;;11.73;10.48;;;11.60;99.90;;;;;;4984720;28;20145;-86
2023/04/07 12:52:06;;;;;;;12.15;10.52;;;11.70;99.90;;;;;;4969427;28;20153;-86
2023/04/07 12:54:32;;;;;;;11.40;10.20;;;11.70;99.90;;;;;;4984691;28;20030;-87
2023/04/07 12:56:58;;;;;;;11.95;9.80;;;11.80;99.90;;;;;;4969657;28;20084;-86
2023/04/07 12:59:24;;;;;;;11.57;9.75;;;11.90;99.90;;;;;;4986985;28;20038;-86
2023/04/07 13:01:50;;;;;;;11.65;9.70;;;12.00;99.90;;;;;;4985782;28;20054;-87
2023/04/07 13:04:16;;;;;;;11.88;9.82;;;12.10;99.90;;;;;;4984011;28;20042;-87
2023/04/07 13:06:42;;;;;;;11.07;9.88;;;12.20;99.90;;;;;;4968558;28;20053;-87
2023/04/07 13:09:08;;;;;;;13.00;10.75;;;12.30;99.90;;;;;;4985164;28;20030;-88
2023/04/07 13:11:34;;;;;;;11.40;10.07;;;12.40;99.90;;;;;;4983708;28;20089;-86
2023/04/07 13:14:00;;;;;;;10.38;9.10;;;12.50;99.90;;;;;;4968681;28;20117;-89